sensor_id;sensor_type;location;lat;lon;timestamp;temperature;humidity
26687;DHT22;14298;50.900;4.648;2022-08-03T00:01:24;18.80;97.10
26687;DHT22;14298;50.900;4.648;2022-08-03T00:03:53;18.80;97.10
26687;DHT22;14298;50.900;4.648;2022-08-03T00:06:21;18.80;97.10
26687;DHT22;14298;50.900;4.648;2022-08-03T00:08:50;18.80;97.10
26687;DHT22;14298;50.900;4.648;2022-08-03T00:11:21;18.80;97.10
26687;DHT22;14298;50.900;4.648;2022-08-03T00:13:51;18.80;97.10
26687;DHT22;14298;50.900;4.648;2022-08-03T00:16:20;18.70;97.10
26687;DHT22;14298;50.900;4.648;2022-08-03T00:18:48;18.70;97.10
26687;DHT22;14298;50.900;4.648;2022-08-03T00:21:16;18.70;97.10
26687;DHT22;14298;50.900;4.648;2022-08-03T00:23:47;18.60;97.10
26687;DHT22;14298;50.900;4.648;2022-08-03T00:26:16;18.60;97.10
26687;DHT22;14298;50.900;4.648;2022-08-03T00:28:50;18.50;97.10
26687;DHT22;14298;50.900;4.648;2022-08-03T00:31:16;18.50;97.10
26687;DHT22;14298;50.900;4.648;2022-08-03T00:33:45;18.50;97.10
26687;DHT22;14298;50.900;4.648;2022-08-03T00:36:13;18.50;97.10
26687;DHT22;14298;50.900;4.648;2022-08-03T00:38:42;18.50;97.10
26687;DHT22;14298;50.900;4.648;2022-08-03T00:41:10;18.50;97.10
26687;DHT22;14298;50.900;4.648;2022-08-03T00:43:45;18.50;97.10
26687;DHT22;14298;50.900;4.648;2022-08-03T00:46:12;18.40;97.10
26687;DHT22;14298;50.900;4.648;2022-08-03T00:48:40;18.40;97.10
26687;DHT22;14298;50.900;4.648;2022-08-03T00:51:10;18.40;97.10
26687;DHT22;14298;50.900;4.648;2022-08-03T00:53:39;18.30;97.10
26687;DHT22;14298;50.900;4.648;2022-08-03T00:56:14;18.30;97.10
26687;DHT22;14298;50.900;4.648;2022-08-03T00:58:49;18.20;97.10
26687;DHT22;14298;50.900;4.648;2022-08-03T01:01:18;18.20;97.10
26687;DHT22;14298;50.900;4.648;2022-08-03T01:03:47;18.20;97.10
26687;DHT22;14298;50.900;4.648;2022-08-03T01:06:49;18.10;97.10
26687;DHT22;14298;50.900;4.648;2022-08-03T01:12:28;18.10;97.10
26687;DHT22;14298;50.900;4.648;2022-08-03T01:20:43;18.10;97.10
26687;DHT22;14298;50.900;4.648;2022-08-03T01:26:33;18.10;97.10
26687;DHT22;14298;50.900;4.648;2022-08-03T01:29:11;18.00;97.10
26687;DHT22;14298;50.900;4.648;2022-08-03T01:31:47;18.00;97.10
26687;DHT22;14298;50.900;4.648;2022-08-03T01:34:19;18.00;97.10
26687;DHT22;14298;50.900;4.648;2022-08-03T01:36:51;17.90;97.10
26687;DHT22;14298;50.900;4.648;2022-08-03T01:39:21;17.90;97.10
26687;DHT22;14298;50.900;4.648;2022-08-03T01:41:57;18.00;97.10
26687;DHT22;14298;50.900;4.648;2022-08-03T01:44:32;18.00;97.10
26687;DHT22;14298;50.900;4.648;2022-08-03T01:47:02;18.00;97.10
26687;DHT22;14298;50.900;4.648;2022-08-03T01:49:37;18.10;97.10
26687;DHT22;14298;50.900;4.648;2022-08-03T01:52:07;18.10;97.10
26687;DHT22;14298;50.900;4.648;2022-08-03T01:54:41;18.20;97.10
26687;DHT22;14298;50.900;4.648;2022-08-03T01:57:10;18.20;97.10
26687;DHT22;14298;50.900;4.648;2022-08-03T01:59:41;18.20;97.10
26687;DHT22;14298;50.900;4.648;2022-08-03T02:02:12;18.10;97.10
26687;DHT22;14298;50.900;4.648;2022-08-03T02:04:46;18.10;97.10
26687;DHT22;14298;50.900;4.648;2022-08-03T02:07:15;18.10;97.10
26687;DHT22;14298;50.900;4.648;2022-08-03T02:09:49;18.10;97.10
26687;DHT22;14298;50.900;4.648;2022-08-03T02:12:18;18.00;97.10
26687;DHT22;14298;50.900;4.648;2022-08-03T02:14:49;18.00;97.10
26687;DHT22;14298;50.900;4.648;2022-08-03T02:17:21;18.00;97.10
26687;DHT22;14298;50.900;4.648;2022-08-03T02:19:53;17.90;97.10
26687;DHT22;14298;50.900;4.648;2022-08-03T02:22:23;17.90;97.10
26687;DHT22;14298;50.900;4.648;2022-08-03T02:24:52;17.90;97.10
26687;DHT22;14298;50.900;4.648;2022-08-03T02:27:26;17.90;97.10
26687;DHT22;14298;50.900;4.648;2022-08-03T02:30:11;17.90;97.10
26687;DHT22;14298;50.900;4.648;2022-08-03T02:32:43;17.80;97.10
26687;DHT22;14298;50.900;4.648;2022-08-03T02:35:19;17.80;97.10
26687;DHT22;14298;50.900;4.648;2022-08-03T02:37:49;17.80;97.10
26687;DHT22;14298;50.900;4.648;2022-08-03T02:40:19;17.70;97.10
26687;DHT22;14298;50.900;4.648;2022-08-03T02:42:50;17.70;97.10
26687;DHT22;14298;50.900;4.648;2022-08-03T02:45:24;17.60;97.10
26687;DHT22;14298;50.900;4.648;2022-08-03T02:47:59;17.50;97.10
26687;DHT22;14298;50.900;4.648;2022-08-03T02:50:31;17.50;97.10
26687;DHT22;14298;50.900;4.648;2022-08-03T02:53:01;17.40;97.10
26687;DHT22;14298;50.900;4.648;2022-08-03T02:55:33;17.40;97.10
26687;DHT22;14298;50.900;4.648;2022-08-03T02:58:03;17.40;97.10
26687;DHT22;14298;50.900;4.648;2022-08-03T03:00:32;17.30;97.10
26687;DHT22;14298;50.900;4.648;2022-08-03T03:03:03;17.30;97.10
26687;DHT22;14298;50.900;4.648;2022-08-03T03:05:34;17.30;97.10
26687;DHT22;14298;50.900;4.648;2022-08-03T03:08:11;17.20;97.10
26687;DHT22;14298;50.900;4.648;2022-08-03T03:10:39;17.20;97.10
26687;DHT22;14298;50.900;4.648;2022-08-03T03:13:09;17.20;97.10
26687;DHT22;14298;50.900;4.648;2022-08-03T03:15:42;17.10;97.10
26687;DHT22;14298;50.900;4.648;2022-08-03T03:18:13;17.00;97.10
26687;DHT22;14298;50.900;4.648;2022-08-03T03:20:47;17.00;97.10
26687;DHT22;14298;50.900;4.648;2022-08-03T03:23:16;17.00;97.10
26687;DHT22;14298;50.900;4.648;2022-08-03T03:25:46;17.00;97.10
26687;DHT22;14298;50.900;4.648;2022-08-03T03:28:15;17.00;97.10
26687;DHT22;14298;50.900;4.648;2022-08-03T03:30:45;17.00;97.10
26687;DHT22;14298;50.900;4.648;2022-08-03T03:33:17;17.10;97.10
26687;DHT22;14298;50.900;4.648;2022-08-03T03:35:49;17.10;97.10
26687;DHT22;14298;50.900;4.648;2022-08-03T03:38:19;17.20;97.10
26687;DHT22;14298;50.900;4.648;2022-08-03T03:40:49;17.20;97.10
26687;DHT22;14298;50.900;4.648;2022-08-03T03:43:18;17.20;97.10
26687;DHT22;14298;50.900;4.648;2022-08-03T03:45:47;17.20;97.10
26687;DHT22;14298;50.900;4.648;2022-08-03T03:48:17;17.20;97.10
26687;DHT22;14298;50.900;4.648;2022-08-03T03:50:51;17.30;97.10
26687;DHT22;14298;50.900;4.648;2022-08-03T03:53:17;17.40;97.10
26687;DHT22;14298;50.900;4.648;2022-08-03T03:55:46;17.50;97.10
26687;DHT22;14298;50.900;4.648;2022-08-03T03:58:16;17.60;97.10
26687;DHT22;14298;50.900;4.648;2022-08-03T04:00:46;17.70;97.10
26687;DHT22;14298;50.900;4.648;2022-08-03T04:03:14;17.70;97.10
26687;DHT22;14298;50.900;4.648;2022-08-03T04:05:47;17.70;97.10
26687;DHT22;14298;50.900;4.648;2022-08-03T04:08:37;17.70;97.10
26687;DHT22;14298;50.900;4.648;2022-08-03T04:11:29;17.60;97.10
26687;DHT22;14298;50.900;4.648;2022-08-03T04:16:48;17.50;97.10
26687;DHT22;14298;50.900;4.648;2022-08-03T04:19:25;17.40;97.10
26687;DHT22;14298;50.900;4.648;2022-08-03T04:21:56;17.40;97.10
26687;DHT22;14298;50.900;4.648;2022-08-03T04:24:32;17.40;97.10
26687;DHT22;14298;50.900;4.648;2022-08-03T04:27:05;17.30;97.10
26687;DHT22;14298;50.900;4.648;2022-08-03T04:29:36;17.30;97.10
26687;DHT22;14298;50.900;4.648;2022-08-03T04:32:07;17.30;97.10
26687;DHT22;14298;50.900;4.648;2022-08-03T04:34:36;17.20;97.10
26687;DHT22;14298;50.900;4.648;2022-08-03T04:37:10;17.20;97.10
26687;DHT22;14298;50.900;4.648;2022-08-03T04:39:44;17.20;97.10
26687;DHT22;14298;50.900;4.648;2022-08-03T04:42:17;17.20;97.10
26687;DHT22;14298;50.900;4.648;2022-08-03T04:44:48;17.20;97.10
26687;DHT22;14298;50.900;4.648;2022-08-03T04:47:19;17.20;97.10
26687;DHT22;14298;50.900;4.648;2022-08-03T04:49:48;17.20;97.10
26687;DHT22;14298;50.900;4.648;2022-08-03T04:52:16;17.30;97.10
26687;DHT22;14298;50.900;4.648;2022-08-03T04:54:45;17.40;97.10
26687;DHT22;14298;50.900;4.648;2022-08-03T04:57:14;17.40;97.10
26687;DHT22;14298;50.900;4.648;2022-08-03T04:59:44;17.50;97.10
26687;DHT22;14298;50.900;4.648;2022-08-03T05:02:15;17.50;97.10
26687;DHT22;14298;50.900;4.648;2022-08-03T05:04:47;17.60;97.10
26687;DHT22;14298;50.900;4.648;2022-08-03T05:07:14;17.70;97.10
26687;DHT22;14298;50.900;4.648;2022-08-03T05:09:46;17.70;97.10
26687;DHT22;14298;50.900;4.648;2022-08-03T05:12:14;17.80;97.10
26687;DHT22;14298;50.900;4.648;2022-08-03T05:14:43;17.90;97.10
26687;DHT22;14298;50.900;4.648;2022-08-03T05:17:11;18.00;97.10
26687;DHT22;14298;50.900;4.648;2022-08-03T05:19:40;18.10;97.10
26687;DHT22;14298;50.900;4.648;2022-08-03T05:22:08;18.20;97.10
26687;DHT22;14298;50.900;4.648;2022-08-03T05:24:36;18.40;97.10
26687;DHT22;14298;50.900;4.648;2022-08-03T05:27:05;18.60;97.10
26687;DHT22;14298;50.900;4.648;2022-08-03T05:29:35;18.80;97.10
26687;DHT22;14298;50.900;4.648;2022-08-03T05:32:08;19.00;97.10
26687;DHT22;14298;50.900;4.648;2022-08-03T05:34:41;19.20;97.10
26687;DHT22;14298;50.900;4.648;2022-08-03T05:37:11;19.40;97.10
26687;DHT22;14298;50.900;4.648;2022-08-03T05:39:44;19.70;97.10
26687;DHT22;14298;50.900;4.648;2022-08-03T05:42:09;20.00;97.10
26687;DHT22;14298;50.900;4.648;2022-08-03T05:44:38;20.40;97.10
26687;DHT22;14298;50.900;4.648;2022-08-03T05:47:06;20.70;97.10
26687;DHT22;14298;50.900;4.648;2022-08-03T05:49:34;21.10;97.10
26687;DHT22;14298;50.900;4.648;2022-08-03T05:52:03;21.40;97.10
26687;DHT22;14298;50.900;4.648;2022-08-03T05:54:31;21.80;97.10
26687;DHT22;14298;50.900;4.648;2022-08-03T05:57:00;22.10;97.10
26687;DHT22;14298;50.900;4.648;2022-08-03T05:59:28;22.50;97.10
26687;DHT22;14298;50.900;4.648;2022-08-03T06:01:57;22.80;97.10
26687;DHT22;14298;50.900;4.648;2022-08-03T06:04:25;23.10;97.10
26687;DHT22;14298;50.900;4.648;2022-08-03T06:06:53;23.30;97.10
26687;DHT22;14298;50.900;4.648;2022-08-03T06:09:21;23.50;97.10
26687;DHT22;14298;50.900;4.648;2022-08-03T06:11:50;23.80;97.10
26687;DHT22;14298;50.900;4.648;2022-08-03T06:14:18;24.00;97.10
26687;DHT22;14298;50.900;4.648;2022-08-03T06:16:46;24.10;97.10
26687;DHT22;14298;50.900;4.648;2022-08-03T06:19:15;24.40;97.10
26687;DHT22;14298;50.900;4.648;2022-08-03T06:21:43;24.60;97.10
26687;DHT22;14298;50.900;4.648;2022-08-03T06:24:11;24.70;97.10
26687;DHT22;14298;50.900;4.648;2022-08-03T06:26:40;24.90;97.10
26687;DHT22;14298;50.900;4.648;2022-08-03T06:29:08;25.00;97.10
26687;DHT22;14298;50.900;4.648;2022-08-03T06:31:36;25.10;97.10
26687;DHT22;14298;50.900;4.648;2022-08-03T06:34:05;25.20;97.10
26687;DHT22;14298;50.900;4.648;2022-08-03T06:36:33;25.30;97.10
26687;DHT22;14298;50.900;4.648;2022-08-03T06:39:03;25.50;97.10
26687;DHT22;14298;50.900;4.648;2022-08-03T06:41:31;25.60;97.10
26687;DHT22;14298;50.900;4.648;2022-08-03T06:44:00;25.70;97.10
26687;DHT22;14298;50.900;4.648;2022-08-03T06:46:28;25.70;97.10
26687;DHT22;14298;50.900;4.648;2022-08-03T06:48:56;25.80;97.10
26687;DHT22;14298;50.900;4.648;2022-08-03T06:51:25;26.00;97.10
26687;DHT22;14298;50.900;4.648;2022-08-03T06:53:53;26.30;97.10
26687;DHT22;14298;50.900;4.648;2022-08-03T06:56:21;26.40;97.10
26687;DHT22;14298;50.900;4.648;2022-08-03T06:58:50;26.80;97.10
26687;DHT22;14298;50.900;4.648;2022-08-03T07:01:18;27.00;97.10
26687;DHT22;14298;50.900;4.648;2022-08-03T07:03:46;27.30;97.10
26687;DHT22;14298;50.900;4.648;2022-08-03T07:06:15;27.60;97.10
26687;DHT22;14298;50.900;4.648;2022-08-03T07:08:43;27.80;97.10
26687;DHT22;14298;50.900;4.648;2022-08-03T07:11:11;27.90;97.10
26687;DHT22;14298;50.900;4.648;2022-08-03T07:13:39;28.10;97.10
26687;DHT22;14298;50.900;4.648;2022-08-03T07:16:08;28.20;97.10
26687;DHT22;14298;50.900;4.648;2022-08-03T07:18:38;28.30;97.10
26687;DHT22;14298;50.900;4.648;2022-08-03T07:21:07;28.40;97.10
26687;DHT22;14298;50.900;4.648;2022-08-03T07:23:37;28.60;97.10
26687;DHT22;14298;50.900;4.648;2022-08-03T07:26:05;28.80;97.10
26687;DHT22;14298;50.900;4.648;2022-08-03T07:28:34;28.90;97.10
26687;DHT22;14298;50.900;4.648;2022-08-03T07:31:02;29.20;97.10
26687;DHT22;14298;50.900;4.648;2022-08-03T07:33:30;29.50;97.10
26687;DHT22;14298;50.900;4.648;2022-08-03T07:35:59;29.40;97.10
26687;DHT22;14298;50.900;4.648;2022-08-03T07:38:28;29.60;97.10
26687;DHT22;14298;50.900;4.648;2022-08-03T07:40:56;29.80;97.10
26687;DHT22;14298;50.900;4.648;2022-08-03T07:43:24;30.00;97.10
26687;DHT22;14298;50.900;4.648;2022-08-03T07:45:53;30.30;97.10
26687;DHT22;14298;50.900;4.648;2022-08-03T07:48:21;30.40;97.10
26687;DHT22;14298;50.900;4.648;2022-08-03T07:50:49;30.70;97.10
26687;DHT22;14298;50.900;4.648;2022-08-03T07:53:18;31.00;97.10
26687;DHT22;14298;50.900;4.648;2022-08-03T07:55:47;31.30;97.10
26687;DHT22;14298;50.900;4.648;2022-08-03T07:58:15;31.70;97.10
26687;DHT22;14298;50.900;4.648;2022-08-03T08:00:45;31.80;97.10
26687;DHT22;14298;50.900;4.648;2022-08-03T08:03:13;31.80;97.10
26687;DHT22;14298;50.900;4.648;2022-08-03T08:05:42;31.70;97.10
26687;DHT22;14298;50.900;4.648;2022-08-03T08:08:10;31.30;97.10
26687;DHT22;14298;50.900;4.648;2022-08-03T08:10:39;31.70;97.10
26687;DHT22;14298;50.900;4.648;2022-08-03T08:13:07;32.40;97.10
26687;DHT22;14298;50.900;4.648;2022-08-03T08:15:35;32.80;97.10
26687;DHT22;14298;50.900;4.648;2022-08-03T08:18:04;33.10;97.10
26687;DHT22;14298;50.900;4.648;2022-08-03T08:20:34;33.50;97.10
26687;DHT22;14298;50.900;4.648;2022-08-03T08:23:06;33.80;97.10
26687;DHT22;14298;50.900;4.648;2022-08-03T08:25:35;33.80;97.10
26687;DHT22;14298;50.900;4.648;2022-08-03T08:28:05;34.30;97.10
26687;DHT22;14298;50.900;4.648;2022-08-03T08:30:33;34.00;97.10
26687;DHT22;14298;50.900;4.648;2022-08-03T08:33:01;34.40;97.10
26687;DHT22;14298;50.900;4.648;2022-08-03T08:35:30;34.40;97.10
26687;DHT22;14298;50.900;4.648;2022-08-03T08:37:59;34.70;97.10
26687;DHT22;14298;50.900;4.648;2022-08-03T08:40:28;35.10;97.10
26687;DHT22;14298;50.900;4.648;2022-08-03T08:42:57;35.10;96.90
26687;DHT22;14298;50.900;4.648;2022-08-03T08:45:25;35.00;97.10
26687;DHT22;14298;50.900;4.648;2022-08-03T08:47:55;35.60;97.10
26687;DHT22;14298;50.900;4.648;2022-08-03T08:50:24;36.30;95.20
26687;DHT22;14298;50.900;4.648;2022-08-03T08:52:53;36.40;94.50
26687;DHT22;14298;50.900;4.648;2022-08-03T08:55:22;36.20;94.00
26687;DHT22;14298;50.900;4.648;2022-08-03T08:57:56;36.30;94.30
26687;DHT22;14298;50.900;4.648;2022-08-03T09:00:25;36.60;94.10
26687;DHT22;14298;50.900;4.648;2022-08-03T09:02:53;37.00;92.80
26687;DHT22;14298;50.900;4.648;2022-08-03T09:05:22;37.80;91.50
26687;DHT22;14298;50.900;4.648;2022-08-03T09:07:50;38.70;90.10
26687;DHT22;14298;50.900;4.648;2022-08-03T09:10:20;39.80;87.30
26687;DHT22;14298;50.900;4.648;2022-08-03T09:12:50;40.90;84.50
26687;DHT22;14298;50.900;4.648;2022-08-03T09:15:23;41.80;81.00
26687;DHT22;14298;50.900;4.648;2022-08-03T09:17:54;42.50;79.50
26687;DHT22;14298;50.900;4.648;2022-08-03T09:20:24;43.30;77.30
26687;DHT22;14298;50.900;4.648;2022-08-03T09:23:03;43.70;75.60
26687;DHT22;14298;50.900;4.648;2022-08-03T09:25:37;44.70;72.60
26687;DHT22;14298;50.900;4.648;2022-08-03T09:28:15;45.20;72.50
26687;DHT22;14298;50.900;4.648;2022-08-03T09:30:58;44.80;72.60
26687;DHT22;14298;50.900;4.648;2022-08-03T09:33:14;44.40;72.00
26687;DHT22;14298;50.900;4.648;2022-08-03T09:35:45;44.30;74.00
26687;DHT22;14298;50.900;4.648;2022-08-03T09:38:16;44.40;72.80
26687;DHT22;14298;50.900;4.648;2022-08-03T09:40:45;44.70;71.40
26687;DHT22;14298;50.900;4.648;2022-08-03T09:43:13;43.70;73.10
26687;DHT22;14298;50.900;4.648;2022-08-03T09:45:42;42.50;75.30
26687;DHT22;14298;50.900;4.648;2022-08-03T09:50:58;41.40;78.90
26687;DHT22;14298;50.900;4.648;2022-08-03T09:53:26;41.00;79.10
26687;DHT22;14298;50.900;4.648;2022-08-03T09:55:59;40.70;80.30
26687;DHT22;14298;50.900;4.648;2022-08-03T09:58:29;40.60;80.60
26687;DHT22;14298;50.900;4.648;2022-08-03T10:01:03;40.90;78.90
26687;DHT22;14298;50.900;4.648;2022-08-03T10:03:34;40.50;81.00
26687;DHT22;14298;50.900;4.648;2022-08-03T10:06:21;40.10;82.70
26687;DHT22;14298;50.900;4.648;2022-08-03T10:08:46;40.00;81.30
26687;DHT22;14298;50.900;4.648;2022-08-03T10:11:33;39.40;82.80
26687;DHT22;14298;50.900;4.648;2022-08-03T10:14:05;38.90;85.10
26687;DHT22;14298;50.900;4.648;2022-08-03T10:16:40;38.60;86.40
26687;DHT22;14298;50.900;4.648;2022-08-03T10:19:05;37.60;89.30
26687;DHT22;14298;50.900;4.648;2022-08-03T10:21:37;37.30;90.90
26687;DHT22;14298;50.900;4.648;2022-08-03T10:24:08;37.30;90.00
26687;DHT22;14298;50.900;4.648;2022-08-03T10:26:39;37.60;90.70
26687;DHT22;14298;50.900;4.648;2022-08-03T10:29:17;38.40;88.70
26687;DHT22;14298;50.900;4.648;2022-08-03T10:31:44;38.60;87.50
26687;DHT22;14298;50.900;4.648;2022-08-03T10:34:18;38.40;87.80
26687;DHT22;14298;50.900;4.648;2022-08-03T10:36:48;38.30;87.90
26687;DHT22;14298;50.900;4.648;2022-08-03T10:39:21;37.80;88.70
26687;DHT22;14298;50.900;4.648;2022-08-03T10:41:51;37.20;89.30
26687;DHT22;14298;50.900;4.648;2022-08-03T10:44:23;36.20;90.00
26687;DHT22;14298;50.900;4.648;2022-08-03T10:46:53;35.40;93.30
26687;DHT22;14298;50.900;4.648;2022-08-03T10:49:23;34.90;94.20
26687;DHT22;14298;50.900;4.648;2022-08-03T10:51:52;34.30;94.80
26687;DHT22;14298;50.900;4.648;2022-08-03T10:57:04;33.50;97.00
26687;DHT22;14298;50.900;4.648;2022-08-03T10:59:57;33.30;97.10
26687;DHT22;14298;50.900;4.648;2022-08-03T11:03:00;32.50;97.10
26687;DHT22;14298;50.900;4.648;2022-08-03T11:05:25;32.00;97.10
26687;DHT22;14298;50.900;4.648;2022-08-03T11:08:21;32.00;97.10
26687;DHT22;14298;50.900;4.648;2022-08-03T11:10:47;32.20;97.10
26687;DHT22;14298;50.900;4.648;2022-08-03T11:13:18;32.20;97.10
26687;DHT22;14298;50.900;4.648;2022-08-03T11:15:49;32.40;97.10
26687;DHT22;14298;50.900;4.648;2022-08-03T11:18:18;32.60;97.10
26687;DHT22;14298;50.900;4.648;2022-08-03T11:20:51;32.70;97.10
26687;DHT22;14298;50.900;4.648;2022-08-03T11:26:13;32.00;97.10
26687;DHT22;14298;50.900;4.648;2022-08-03T11:28:44;32.00;97.10
26687;DHT22;14298;50.900;4.648;2022-08-03T11:34:09;31.40;97.10
26687;DHT22;14298;50.900;4.648;2022-08-03T11:39:45;32.20;97.10
26687;DHT22;14298;50.900;4.648;2022-08-03T11:44:59;32.10;97.10
26687;DHT22;14298;50.900;4.648;2022-08-03T11:47:28;32.00;97.10
26687;DHT22;14298;50.900;4.648;2022-08-03T11:49:58;31.80;97.10
26687;DHT22;14298;50.900;4.648;2022-08-03T11:52:38;32.00;97.10
26687;DHT22;14298;50.900;4.648;2022-08-03T11:55:10;32.10;97.10
26687;DHT22;14298;50.900;4.648;2022-08-03T11:57:38;31.90;97.10
26687;DHT22;14298;50.900;4.648;2022-08-03T12:05:35;31.60;97.10
26687;DHT22;14298;50.900;4.648;2022-08-03T12:08:04;31.20;97.10
26687;DHT22;14298;50.900;4.648;2022-08-03T12:10:34;31.00;97.10
26687;DHT22;14298;50.900;4.648;2022-08-03T12:13:04;31.20;97.10
26687;DHT22;14298;50.900;4.648;2022-08-03T12:15:35;31.60;97.10
26687;DHT22;14298;50.900;4.648;2022-08-03T12:18:13;31.80;97.10
26687;DHT22;14298;50.900;4.648;2022-08-03T12:20:42;32.00;97.10
26687;DHT22;14298;50.900;4.648;2022-08-03T12:23:11;32.10;97.10
26687;DHT22;14298;50.900;4.648;2022-08-03T12:25:42;31.80;97.10
26687;DHT22;14298;50.900;4.648;2022-08-03T12:28:19;31.80;97.10
26687;DHT22;14298;50.900;4.648;2022-08-03T12:30:51;31.80;97.10
26687;DHT22;14298;50.900;4.648;2022-08-03T12:33:26;32.20;97.10
26687;DHT22;14298;50.900;4.648;2022-08-03T12:36:09;32.40;97.10
26687;DHT22;14298;50.900;4.648;2022-08-03T12:38:38;32.70;97.10
26687;DHT22;14298;50.900;4.648;2022-08-03T12:41:10;32.50;97.10
26687;DHT22;14298;50.900;4.648;2022-08-03T12:43:50;32.10;97.10
26687;DHT22;14298;50.900;4.648;2022-08-03T12:46:18;31.90;97.10
26687;DHT22;14298;50.900;4.648;2022-08-03T12:51:33;31.70;97.10
26687;DHT22;14298;50.900;4.648;2022-08-03T12:54:02;31.70;97.10
26687;DHT22;14298;50.900;4.648;2022-08-03T12:56:31;31.80;97.10
26687;DHT22;14298;50.900;4.648;2022-08-03T12:58:59;32.00;97.10
26687;DHT22;14298;50.900;4.648;2022-08-03T13:01:35;32.10;97.10
26687;DHT22;14298;50.900;4.648;2022-08-03T13:03:59;31.90;97.10
26687;DHT22;14298;50.900;4.648;2022-08-03T13:06:28;32.10;97.10
26687;DHT22;14298;50.900;4.648;2022-08-03T13:09:04;32.40;97.10
26687;DHT22;14298;50.900;4.648;2022-08-03T13:11:33;32.70;97.10
26687;DHT22;14298;50.900;4.648;2022-08-03T13:14:02;32.70;97.10
26687;DHT22;14298;50.900;4.648;2022-08-03T13:16:30;32.60;97.10
26687;DHT22;14298;50.900;4.648;2022-08-03T13:18:58;32.50;97.10
26687;DHT22;14298;50.900;4.648;2022-08-03T13:21:26;32.30;97.10
26687;DHT22;14298;50.900;4.648;2022-08-03T13:23:55;32.30;97.10
26687;DHT22;14298;50.900;4.648;2022-08-03T13:26:23;32.60;97.10
26687;DHT22;14298;50.900;4.648;2022-08-03T13:28:51;32.90;97.10
26687;DHT22;14298;50.900;4.648;2022-08-03T13:31:20;33.00;96.90
26687;DHT22;14298;50.900;4.648;2022-08-03T13:33:48;32.90;97.10
26687;DHT22;14298;50.900;4.648;2022-08-03T13:36:16;32.80;96.40
26687;DHT22;14298;50.900;4.648;2022-08-03T13:38:46;32.50;95.60
26687;DHT22;14298;50.900;4.648;2022-08-03T13:41:14;32.30;97.10
26687;DHT22;14298;50.900;4.648;2022-08-03T13:43:42;32.30;97.10
26687;DHT22;14298;50.900;4.648;2022-08-03T13:46:11;32.50;97.10
26687;DHT22;14298;50.900;4.648;2022-08-03T13:48:39;32.70;97.10
26687;DHT22;14298;50.900;4.648;2022-08-03T13:51:07;32.90;97.10
26687;DHT22;14298;50.900;4.648;2022-08-03T13:53:36;33.00;96.90
26687;DHT22;14298;50.900;4.648;2022-08-03T13:56:04;33.10;96.40
26687;DHT22;14298;50.900;4.648;2022-08-03T13:58:32;33.20;96.70
26687;DHT22;14298;50.900;4.648;2022-08-03T14:01:00;33.10;96.90
26687;DHT22;14298;50.900;4.648;2022-08-03T14:03:29;32.80;97.10
26687;DHT22;14298;50.900;4.648;2022-08-03T14:05:57;32.80;97.10
26687;DHT22;14298;50.900;4.648;2022-08-03T14:08:25;32.70;97.10
26687;DHT22;14298;50.900;4.648;2022-08-03T14:10:54;32.50;96.90
26687;DHT22;14298;50.900;4.648;2022-08-03T14:13:22;32.60;97.10
26687;DHT22;14298;50.900;4.648;2022-08-03T14:15:51;32.30;97.10
26687;DHT22;14298;50.900;4.648;2022-08-03T14:18:20;32.10;97.10
26687;DHT22;14298;50.900;4.648;2022-08-03T14:20:49;32.00;97.10
26687;DHT22;14298;50.900;4.648;2022-08-03T14:23:18;32.00;97.10
26687;DHT22;14298;50.900;4.648;2022-08-03T14:25:47;31.90;97.10
26687;DHT22;14298;50.900;4.648;2022-08-03T14:28:15;32.10;97.10
26687;DHT22;14298;50.900;4.648;2022-08-03T14:30:44;32.40;97.10
26687;DHT22;14298;50.900;4.648;2022-08-03T14:33:12;32.30;97.00
26687;DHT22;14298;50.900;4.648;2022-08-03T14:35:41;32.50;97.10
26687;DHT22;14298;50.900;4.648;2022-08-03T14:38:09;32.50;96.80
26687;DHT22;14298;50.900;4.648;2022-08-03T14:40:38;32.40;96.80
26687;DHT22;14298;50.900;4.648;2022-08-03T14:43:06;32.20;97.10
26687;DHT22;14298;50.900;4.648;2022-08-03T14:45:34;32.10;97.10
26687;DHT22;14298;50.900;4.648;2022-08-03T14:48:03;32.00;97.10
26687;DHT22;14298;50.900;4.648;2022-08-03T14:50:32;32.10;97.10
26687;DHT22;14298;50.900;4.648;2022-08-03T14:53:01;32.00;97.10
26687;DHT22;14298;50.900;4.648;2022-08-03T14:55:29;32.10;97.10
26687;DHT22;14298;50.900;4.648;2022-08-03T14:57:57;32.30;97.10
26687;DHT22;14298;50.900;4.648;2022-08-03T15:00:27;32.30;97.10
26687;DHT22;14298;50.900;4.648;2022-08-03T15:02:55;32.20;97.10
26687;DHT22;14298;50.900;4.648;2022-08-03T15:05:24;32.00;97.10
26687;DHT22;14298;50.900;4.648;2022-08-03T15:07:52;31.70;97.10
26687;DHT22;14298;50.900;4.648;2022-08-03T15:10:20;31.80;97.10
26687;DHT22;14298;50.900;4.648;2022-08-03T15:12:49;32.00;97.10
26687;DHT22;14298;50.900;4.648;2022-08-03T15:15:18;32.10;97.10
26687;DHT22;14298;50.900;4.648;2022-08-03T15:17:46;32.40;97.10
26687;DHT22;14298;50.900;4.648;2022-08-03T15:20:14;32.70;96.60
26687;DHT22;14298;50.900;4.648;2022-08-03T15:22:43;32.90;95.80
26687;DHT22;14298;50.900;4.648;2022-08-03T15:25:11;33.00;96.00
26687;DHT22;14298;50.900;4.648;2022-08-03T15:27:39;33.00;96.30
26687;DHT22;14298;50.900;4.648;2022-08-03T15:30:08;33.00;95.60
26687;DHT22;14298;50.900;4.648;2022-08-03T15:32:37;32.70;95.90
26687;DHT22;14298;50.900;4.648;2022-08-03T15:35:06;32.50;96.00
26687;DHT22;14298;50.900;4.648;2022-08-03T15:37:34;32.50;95.90
26687;DHT22;14298;50.900;4.648;2022-08-03T15:40:03;32.50;95.90
26687;DHT22;14298;50.900;4.648;2022-08-03T15:42:32;32.60;96.50
26687;DHT22;14298;50.900;4.648;2022-08-03T15:45:01;32.50;96.80
26687;DHT22;14298;50.900;4.648;2022-08-03T15:47:29;32.60;96.80
26687;DHT22;14298;50.900;4.648;2022-08-03T15:49:57;32.80;95.60
26687;DHT22;14298;50.900;4.648;2022-08-03T15:52:26;32.50;96.00
26687;DHT22;14298;50.900;4.648;2022-08-03T15:54:54;32.30;95.80
26687;DHT22;14298;50.900;4.648;2022-08-03T15:57:22;32.40;95.80
26687;DHT22;14298;50.900;4.648;2022-08-03T15:59:51;32.60;96.40
26687;DHT22;14298;50.900;4.648;2022-08-03T16:02:19;32.80;97.10
26687;DHT22;14298;50.900;4.648;2022-08-03T16:04:47;32.80;96.40
26687;DHT22;14298;50.900;4.648;2022-08-03T16:07:16;32.80;95.50
26687;DHT22;14298;50.900;4.648;2022-08-03T16:09:46;32.80;96.00
26687;DHT22;14298;50.900;4.648;2022-08-03T16:12:14;32.60;96.20
26687;DHT22;14298;50.900;4.648;2022-08-03T16:14:44;32.30;96.30
26687;DHT22;14298;50.900;4.648;2022-08-03T16:17:12;32.40;96.30
26687;DHT22;14298;50.900;4.648;2022-08-03T16:19:40;32.20;96.90
26687;DHT22;14298;50.900;4.648;2022-08-03T16:22:09;32.30;96.70
26687;DHT22;14298;50.900;4.648;2022-08-03T16:24:37;32.40;96.60
26687;DHT22;14298;50.900;4.648;2022-08-03T16:27:05;32.50;96.40
26687;DHT22;14298;50.900;4.648;2022-08-03T16:29:35;32.40;96.60